createdAt,value
2022-12-01T00:01:21.088Z,52.05
2022-12-01T00:03:47.965Z,54.55
2022-12-01T00:06:19.977Z,53.47
2022-12-01T00:09:07.325Z,48.70
2022-12-01T00:11:35.604Z,56.75
2022-12-01T00:14:02.786Z,50.67
2022-12-01T00:16:30.120Z,49.75
2022-12-01T00:18:57.139Z,52.08
2022-12-01T00:21:25.775Z,54.58
2022-12-01T00:23:55.034Z,50.92
2022-12-01T00:26:23.087Z,52.78
2022-12-01T00:28:54.833Z,52.10
2022-12-01T00:31:21.983Z,54.92
2022-12-01T00:33:49.667Z,54.15
2022-12-01T00:36:16.281Z,58.47
2022-12-01T00:38:43.160Z,62.97
2022-12-01T00:41:09.829Z,56.20
2022-12-01T00:43:36.559Z,62.92
2022-12-01T00:46:03.668Z,61.53
2022-12-01T00:48:32.383Z,59.28
2022-12-01T00:51:00.019Z,56.17
2022-12-01T00:53:26.659Z,60.33
2022-12-01T00:55:56.160Z,60.45
2022-12-01T00:58:23.716Z,62.95
2022-12-01T01:00:58.436Z,65.30
2022-12-01T01:03:26.108Z,61.42
2022-12-01T01:05:52.732Z,69.20
2022-12-01T01:08:19.404Z,60.75
2022-12-01T01:10:47.779Z,70.22
2022-12-01T01:13:15.510Z,59.80
2022-12-01T01:15:42.370Z,71.65
2022-12-01T01:18:11.466Z,72.97
2022-12-01T01:20:38.194Z,59.70
2022-12-01T01:23:04.917Z,64.68
2022-12-01T01:25:32.697Z,66.10
2022-12-01T01:27:59.322Z,60.38
2022-12-01T01:30:26.031Z,57.25
2022-12-01T01:32:52.662Z,64.75
2022-12-01T01:35:19.241Z,61.55
2022-12-01T01:37:45.851Z,65.32
2022-12-01T01:40:12.562Z,64.72
2022-12-01T01:42:39.149Z,57.50
2022-12-01T01:45:29.484Z,62.55
2022-12-01T01:47:58.464Z,59.65
2022-12-01T01:50:28.243Z,55.10
2022-12-01T01:53:02.677Z,62.50
2022-12-01T01:55:33.102Z,55.00
2022-12-01T01:58:00.260Z,57.90
2022-12-01T02:00:27.092Z,57.88
2022-12-01T02:02:54.303Z,46.88
2022-12-01T02:05:25.625Z,57.75
2022-12-01T02:07:55.298Z,58.28
2022-12-01T02:10:33.503Z,53.30
2022-12-01T02:13:06.070Z,54.88
2022-12-01T02:18:22.643Z,61.03
2022-12-01T02:21:27.779Z,63.03
2022-12-01T02:24:23.272Z,61.75
2022-12-01T02:27:02.191Z,54.33
2022-12-01T02:29:48.294Z,53.58
2022-12-01T02:32:30.618Z,54.20
2022-12-01T02:35:20.600Z,60.70
2022-12-01T02:37:51.990Z,53.42
2022-12-01T02:40:25.527Z,51.50
2022-12-01T02:43:32.815Z,51.95
2022-12-01T02:46:10.653Z,55.55
2022-12-01T02:48:41.174Z,46.80
2022-12-01T02:51:13.080Z,45.47
2022-12-01T02:53:39.735Z,46.92
2022-12-01T02:56:10.381Z,48.45
2022-12-01T02:58:37.008Z,47.83
2022-12-01T03:01:10.606Z,46.67
2022-12-01T03:03:59.438Z,47.85
2022-12-01T03:06:37.176Z,52.75
2022-12-01T03:09:41.520Z,48.38
2022-12-01T03:12:15.612Z,50.00
2022-12-01T03:14:58.610Z,50.28
2022-12-01T03:17:30.670Z,47.28
2022-12-01T03:20:12.419Z,48.55
2022-12-01T03:22:48.845Z,49.67
2022-12-01T03:25:17.582Z,46.08
2022-12-01T03:28:06.655Z,49.17
2022-12-01T03:30:39.069Z,46.47
2022-12-01T03:33:10.761Z,48.10
2022-12-01T03:36:03.433Z,43.13
2022-12-01T03:38:31.901Z,46.22
2022-12-01T03:41:02.857Z,47.20
2022-12-01T03:43:34.915Z,41.83
2022-12-01T03:46:23.039Z,41.25
2022-12-01T03:48:52.794Z,48.33
2022-12-01T03:51:30.031Z,50.88
2022-12-01T03:54:07.762Z,43.30
2022-12-01T03:56:46.626Z,45.78
2022-12-01T03:59:15.175Z,41.10
2022-12-01T04:01:41.869Z,50.55
2022-12-01T04:04:13.231Z,49.00
2022-12-01T04:06:44.871Z,44.30
2022-12-01T04:09:11.505Z,41.20
2022-12-01T04:12:16.520Z,44.88
2022-12-01T04:14:43.138Z,41.13
2022-12-01T04:17:09.765Z,39.72
2022-12-01T04:19:37.427Z,41.50
2022-12-01T04:22:04.005Z,42.33
2022-12-01T04:24:30.872Z,40.80
2022-12-01T04:26:57.396Z,35.38
2022-12-01T04:29:23.943Z,44.30
2022-12-01T04:31:51.605Z,35.17
2022-12-01T04:34:18.223Z,36.38
2022-12-01T04:36:45.054Z,42.60
2022-12-01T04:39:11.640Z,40.80
2022-12-01T04:41:38.163Z,42.55
2022-12-01T04:44:04.886Z,37.72
2022-12-01T04:46:31.592Z,43.70
2022-12-01T04:48:58.182Z,40.45
2022-12-01T04:51:24.762Z,45.38
2022-12-01T04:53:51.562Z,45.35
2022-12-01T04:56:18.354Z,49.72
2022-12-01T04:58:45.679Z,54.05
2022-12-01T05:01:14.451Z,48.40
2022-12-01T05:03:43.768Z,43.17
2022-12-01T05:06:16.763Z,52.50
2022-12-01T05:08:44.556Z,50.80
2022-12-01T05:11:12.431Z,50.17
2022-12-01T05:13:40.609Z,56.50
2022-12-01T05:16:12.262Z,48.78
2022-12-01T05:18:39.412Z,62.67
2022-12-01T05:21:08.792Z,53.25
2022-12-01T05:23:36.968Z,57.20
2022-12-01T05:26:06.587Z,53.88
2022-12-01T05:28:33.374Z,58.95
2022-12-01T05:31:00.197Z,60.88
2022-12-01T05:33:27.424Z,54.45
2022-12-01T05:35:54.722Z,50.53
2022-12-01T05:38:21.923Z,55.40
2022-12-01T05:40:53.352Z,55.05
2022-12-01T05:43:26.886Z,51.53
2022-12-01T05:45:56.113Z,55.38
2022-12-01T05:48:22.750Z,50.88
2022-12-01T05:50:49.341Z,58.25
2022-12-01T05:53:15.946Z,49.22
2022-12-01T05:55:43.616Z,62.55
2022-12-01T05:58:10.782Z,55.72
2022-12-01T06:00:45.063Z,57.00
2022-12-01T06:03:12.823Z,61.47
2022-12-01T06:05:39.780Z,57.67
2022-12-01T06:08:06.465Z,55.45
2022-12-01T06:10:33.184Z,60.22
2022-12-01T06:12:59.814Z,57.63
2022-12-01T06:15:26.593Z,60.10
2022-12-01T06:17:53.242Z,59.13
2022-12-01T06:20:19.937Z,52.00
2022-12-01T06:22:46.460Z,60.97
2022-12-01T06:25:14.062Z,58.30
2022-12-01T06:27:40.711Z,64.95
2022-12-01T06:30:08.003Z,63.47
2022-12-01T06:32:34.686Z,63.65
2022-12-01T06:35:01.441Z,59.00
2022-12-01T06:37:28.483Z,63.13
2022-12-01T06:39:55.106Z,63.60
2022-12-01T06:42:21.833Z,54.03
2022-12-01T06:44:48.415Z,54.38
2022-12-01T06:47:15.888Z,58.53
2022-12-01T06:49:42.651Z,58.88
2022-12-01T06:52:11.368Z,63.08
2022-12-01T06:54:37.916Z,63.90
2022-12-01T06:57:04.578Z,58.95
2022-12-01T06:59:31.382Z,62.30
2022-12-01T07:01:58.470Z,51.80
2022-12-01T07:04:25.041Z,54.75
2022-12-01T07:06:51.606Z,55.15
2022-12-01T07:09:19.236Z,56.55
2022-12-01T07:11:46.048Z,51.15
2022-12-01T07:14:23.816Z,58.33
2022-12-01T07:16:50.800Z,53.35
2022-12-01T07:19:17.599Z,57.40
2022-12-01T07:21:44.376Z,58.17
2022-12-01T07:24:12.627Z,60.33
2022-12-01T07:26:41.062Z,59.08
2022-12-01T07:29:09.241Z,57.65
2022-12-01T07:31:36.750Z,56.70
2022-12-01T07:34:04.309Z,55.13
2022-12-01T07:36:32.057Z,57.40
2022-12-01T07:38:58.711Z,57.85
2022-12-01T07:41:25.439Z,60.65
2022-12-01T07:43:52.151Z,63.13
2022-12-01T07:46:23.561Z,62.03
2022-12-01T07:48:51.660Z,45.05
2022-12-01T07:51:18.911Z,57.70
2022-12-01T07:53:46.981Z,56.30
2022-12-01T07:56:14.226Z,54.15
2022-12-01T07:58:41.258Z,55.20
2022-12-01T08:01:19.638Z,48.38
2022-12-01T08:03:48.646Z,56.42
2022-12-01T08:06:16.879Z,55.95
2022-12-01T08:08:44.977Z,53.97
2022-12-01T08:11:24.482Z,54.35
2022-12-01T08:13:52.382Z,58.15
2022-12-01T08:16:22.305Z,56.88
2022-12-01T08:18:49.741Z,55.83
2022-12-01T08:21:18.874Z,54.85
2022-12-01T08:23:46.967Z,55.30
2022-12-01T08:26:18.977Z,55.20
2022-12-01T08:28:46.995Z,60.35
2022-12-01T08:31:26.007Z,62.67
2022-12-01T08:33:53.314Z,66.70
2022-12-01T08:36:21.196Z,57.35
2022-12-01T08:38:52.002Z,60.33
2022-12-01T08:41:19.871Z,63.17
2022-12-01T08:43:58.066Z,61.92
2022-12-01T08:46:26.402Z,59.08
2022-12-01T08:48:55.065Z,60.72
2022-12-01T08:51:21.964Z,55.70
2022-12-01T08:53:50.169Z,62.13
2022-12-01T08:56:24.040Z,67.63
2022-12-01T08:58:51.721Z,68.00
2022-12-01T09:01:20.335Z,64.95
2022-12-01T09:03:47.378Z,65.75
2022-12-01T09:06:16.704Z,67.63
2022-12-01T09:08:43.832Z,72.22
2022-12-01T09:11:13.435Z,64.85
2022-12-01T09:13:40.649Z,64.85
2022-12-01T09:16:13.399Z,65.72
2022-12-01T09:18:40.199Z,67.20
2022-12-01T09:21:30.302Z,63.67
2022-12-01T09:23:57.295Z,62.13
2022-12-01T09:26:26.570Z,66.57
2022-12-01T09:28:55.378Z,73.10
2022-12-01T09:31:23.546Z,67.82
2022-12-01T09:34:01.906Z,66.50
2022-12-01T09:36:30.042Z,65.18
2022-12-01T09:38:56.780Z,66.75
2022-12-01T09:41:31.166Z,65.55
2022-12-01T09:44:15.155Z,66.68
2022-12-01T09:46:46.217Z,63.85
2022-12-01T09:49:19.528Z,57.55
2022-12-01T09:51:46.133Z,60.67
2022-12-01T09:54:14.090Z,56.78
2022-12-01T09:56:50.335Z,59.95
2022-12-01T09:59:22.504Z,62.05
2022-12-01T10:01:54.928Z,58.10
2022-12-01T10:04:36.059Z,58.53
2022-12-01T10:07:31.977Z,59.00
2022-12-01T10:10:03.675Z,62.25
2022-12-01T10:12:33.365Z,51.80
2022-12-01T10:15:27.468Z,50.08
2022-12-01T10:18:20.176Z,61.00
2022-12-01T10:21:03.597Z,59.75
2022-12-01T10:23:55.870Z,59.38
2022-12-01T10:26:34.649Z,63.22
2022-12-01T10:29:11.858Z,55.58
2022-12-01T10:31:50.527Z,56.28
2022-12-01T10:34:29.665Z,55.83
2022-12-01T10:36:57.929Z,57.50
2022-12-01T10:39:29.940Z,59.75
2022-12-01T10:42:07.056Z,55.22
2022-12-01T10:44:35.098Z,56.42
2022-12-01T10:47:03.130Z,53.40
2022-12-01T10:49:41.047Z,53.63
2022-12-01T10:52:26.497Z,55.60
2022-12-01T10:54:53.025Z,61.17
2022-12-01T10:57:19.833Z,54.53
2022-12-01T10:59:57.247Z,53.45
2022-12-01T11:02:27.623Z,58.22
2022-12-01T11:04:58.214Z,58.25
2022-12-01T11:07:29.675Z,57.13
2022-12-01T11:10:08.151Z,57.17
2022-12-01T11:12:34.804Z,55.38
2022-12-01T11:15:01.924Z,58.60
2022-12-01T11:17:33.997Z,64.28
2022-12-01T11:20:37.026Z,41.05
2022-12-01T11:23:09.710Z,49.25
2022-12-01T11:25:36.863Z,56.70
2022-12-01T11:28:05.012Z,51.15
2022-12-01T11:30:33.614Z,51.67
2022-12-01T11:33:03.199Z,52.13
2022-12-01T11:35:35.136Z,50.03
2022-12-01T11:41:00.506Z,51.30
2022-12-01T11:43:36.160Z,50.15
2022-12-01T11:46:06.641Z,45.72
2022-12-01T11:48:35.308Z,51.22
2022-12-01T11:51:28.754Z,51.50
2022-12-01T11:54:33.980Z,52.22
2022-12-01T11:57:31.710Z,50.42
2022-12-01T11:59:47.500Z,54.15
2022-12-01T12:02:23.869Z,50.67
2022-12-01T12:04:53.335Z,47.00
2022-12-01T12:07:44.381Z,49.30
2022-12-01T12:10:44.724Z,50.88
2022-12-01T12:13:43.509Z,49.97
2022-12-01T12:16:33.470Z,51.70
2022-12-01T12:19:28.945Z,44.88
2022-12-01T12:22:42.350Z,43.13
2022-12-01T12:25:17.694Z,48.67
2022-12-01T12:27:50.708Z,46.60
2022-12-01T12:30:22.285Z,44.13
2022-12-01T12:33:20.366Z,49.00
2022-12-01T12:36:38.869Z,48.00
2022-12-01T12:39:35.055Z,46.03
2022-12-01T12:42:10.813Z,44.08
2022-12-01T12:44:49.561Z,43.72
2022-12-01T12:47:46.139Z,45.53
2022-12-01T12:50:43.695Z,47.15
2022-12-01T12:53:22.779Z,46.05
2022-12-01T12:55:52.702Z,49.00
2022-12-01T12:58:35.333Z,43.75
2022-12-01T13:01:12.344Z,47.53
2022-12-01T13:03:50.983Z,47.92
2022-12-01T13:06:20.425Z,49.83
2022-12-01T13:08:57.256Z,45.22
2022-12-01T13:11:36.803Z,47.55
2022-12-01T13:14:49.870Z,45.72
2022-12-01T13:17:20.936Z,47.58
2022-12-01T13:19:48.404Z,48.65
2022-12-01T13:22:17.946Z,47.63
2022-12-01T13:24:44.707Z,47.20
2022-12-01T13:27:11.222Z,44.85
2022-12-01T13:29:43.825Z,43.47
2022-12-01T13:32:27.189Z,42.90
2022-12-01T13:34:53.961Z,44.72
2022-12-01T13:37:35.698Z,44.17
2022-12-01T13:40:20.273Z,44.28
2022-12-01T13:43:00.274Z,45.25
2022-12-01T13:45:40.004Z,41.90
2022-12-01T13:48:25.966Z,40.70
2022-12-01T13:51:02.190Z,45.50
2022-12-01T13:53:36.516Z,46.63
2022-12-01T13:56:02.940Z,46.38
2022-12-01T13:58:32.724Z,42.33
2022-12-01T14:01:21.477Z,43.30
2022-12-01T14:04:10.760Z,46.10
2022-12-01T14:06:51.438Z,44.83
2022-12-01T14:09:17.896Z,43.50
2022-12-01T14:11:56.997Z,43.00
2022-12-01T14:14:26.995Z,42.78
2022-12-01T14:16:58.424Z,42.60
2022-12-01T14:19:37.107Z,48.88
2022-12-01T14:22:07.760Z,43.35
2022-12-01T14:24:41.475Z,46.28
2022-12-01T14:27:12.233Z,43.65
2022-12-01T14:29:43.008Z,46.17
2022-12-01T14:32:09.452Z,44.67
2022-12-01T14:34:38.208Z,48.72
2022-12-01T14:37:20.575Z,46.05
2022-12-01T14:40:05.510Z,51.80
2022-12-01T14:42:55.399Z,50.47
2022-12-01T14:45:27.689Z,49.40
2022-12-01T14:48:02.287Z,48.83
2022-12-01T14:50:35.017Z,47.75
2022-12-01T14:53:08.893Z,47.10
2022-12-01T14:55:47.268Z,45.65
2022-12-01T14:58:18.358Z,50.72
2022-12-01T15:01:14.317Z,39.95
2022-12-01T15:03:45.070Z,50.10
2022-12-01T15:06:20.670Z,46.03
2022-12-01T15:09:31.461Z,49.55
2022-12-01T15:11:57.465Z,44.50
2022-12-01T15:14:34.180Z,43.40
2022-12-01T15:17:03.307Z,43.50
2022-12-01T15:19:33.289Z,47.85
2022-12-01T15:22:04.867Z,52.38
2022-12-01T15:24:33.869Z,44.35
2022-12-01T15:27:03.809Z,44.45
2022-12-01T15:29:46.779Z,44.90
2022-12-01T15:32:16.738Z,45.45
2022-12-01T15:34:46.493Z,45.22
2022-12-01T15:37:19.219Z,44.70
2022-12-01T15:39:49.048Z,47.63
2022-12-01T15:42:26.040Z,47.50
2022-12-01T15:45:04.328Z,47.90
2022-12-01T15:47:45.967Z,50.30
2022-12-01T15:50:31.246Z,48.10
2022-12-01T15:53:00.423Z,48.05
2022-12-01T15:55:35.642Z,54.00
2022-12-01T15:58:06.966Z,52.28
2022-12-01T16:00:33.738Z,49.65
2022-12-01T16:03:02.136Z,54.72
2022-12-01T16:05:32.528Z,56.65
2022-12-01T16:08:14.279Z,48.20
2022-12-01T16:10:40.922Z,51.47
2022-12-01T16:13:47.453Z,49.90
2022-12-01T16:16:38.094Z,49.35
2022-12-01T16:19:24.356Z,55.38
2022-12-01T16:22:03.153Z,50.63
2022-12-01T16:24:33.087Z,52.83
2022-12-01T16:27:05.795Z,52.70
2022-12-01T16:29:57.803Z,51.05
2022-12-01T16:32:35.970Z,56.20
2022-12-01T16:35:04.234Z,54.90
2022-12-01T16:37:31.337Z,51.05
2022-12-01T16:39:58.546Z,51.92
2022-12-01T16:42:25.082Z,47.70
2022-12-01T16:44:52.351Z,47.70
2022-12-01T16:47:21.962Z,45.63
2022-12-01T16:49:48.721Z,47.25
2022-12-01T16:52:43.146Z,50.65
2022-12-01T16:55:02.309Z,45.10
2022-12-01T16:57:28.806Z,44.63
2022-12-01T16:59:55.316Z,45.25
2022-12-01T17:02:21.882Z,47.45
2022-12-01T17:04:48.728Z,45.08
2022-12-01T17:07:15.440Z,38.22
2022-12-01T17:09:41.927Z,39.90
2022-12-01T17:12:08.441Z,45.70
2022-12-01T17:14:35.820Z,46.20
2022-12-01T17:17:03.634Z,47.45
2022-12-01T17:19:30.134Z,47.70
2022-12-01T17:21:57.011Z,41.15
2022-12-01T17:24:23.842Z,44.13
2022-12-01T17:26:50.372Z,48.15
2022-12-01T17:29:16.885Z,47.92
2022-12-01T17:31:43.398Z,49.33
2022-12-01T17:34:09.912Z,43.85
2022-12-01T17:36:36.624Z,46.30
2022-12-01T17:39:03.230Z,45.08
2022-12-01T17:41:35.652Z,40.40
2022-12-01T17:44:05.797Z,43.42
2022-12-01T17:46:32.399Z,44.38
2022-12-01T17:49:00.585Z,48.28
2022-12-01T17:51:27.098Z,48.20
2022-12-01T17:53:54.195Z,46.53
2022-12-01T17:56:20.843Z,47.75
2022-12-01T17:58:50.411Z,49.33
2022-12-01T18:01:19.679Z,41.33
2022-12-01T18:03:47.398Z,51.13
2022-12-01T18:06:14.854Z,48.13
2022-12-01T18:08:42.631Z,52.47
2022-12-01T18:11:12.114Z,49.15
2022-12-01T18:13:40.834Z,49.88
2022-12-01T18:16:27.950Z,51.63
2022-12-01T18:18:55.104Z,53.22
2022-12-01T18:21:23.553Z,44.45
2022-12-01T18:23:51.775Z,50.78
2022-12-01T18:26:20.465Z,49.28
2022-12-01T18:28:47.348Z,47.55
2022-12-01T18:31:16.167Z,48.63
2022-12-01T18:33:44.536Z,51.00
2022-12-01T18:36:16.908Z,52.42
2022-12-01T18:38:44.406Z,47.95
2022-12-01T18:41:10.962Z,50.38
2022-12-01T18:43:37.485Z,49.60
2022-12-01T18:46:05.763Z,52.45
2022-12-01T18:48:33.383Z,49.65
2022-12-01T18:51:07.602Z,49.88
2022-12-01T18:53:34.798Z,47.15
2022-12-01T18:56:03.424Z,47.42
2022-12-01T18:58:30.883Z,45.65
2022-12-01T19:00:58.421Z,44.28
2022-12-01T19:03:25.641Z,47.42
2022-12-01T19:05:52.307Z,50.05
2022-12-01T19:08:19.248Z,48.33
2022-12-01T19:10:45.838Z,46.13
2022-12-01T19:13:12.379Z,46.05
2022-12-01T19:15:38.935Z,48.22
2022-12-01T19:18:05.546Z,47.63
2022-12-01T19:20:32.158Z,46.65
2022-12-01T19:22:58.926Z,53.60
2022-12-01T19:25:25.472Z,58.33
2022-12-01T19:27:53.194Z,54.20
2022-12-01T19:30:19.884Z,57.28
2022-12-01T19:32:46.552Z,65.65
2022-12-01T19:35:13.092Z,65.15
2022-12-01T19:37:39.586Z,69.53
2022-12-01T19:40:06.936Z,65.35
2022-12-01T19:42:33.505Z,70.15
2022-12-01T19:45:01.120Z,70.35
2022-12-01T19:47:31.920Z,70.30
2022-12-01T19:49:58.603Z,70.65
2022-12-01T19:52:25.124Z,68.70
2022-12-01T19:54:52.405Z,67.30
2022-12-01T19:57:19.139Z,64.75
2022-12-01T19:59:45.695Z,68.90
2022-12-01T20:02:12.457Z,76.72
2022-12-01T20:04:40.030Z,68.88
2022-12-01T20:07:07.368Z,67.07
2022-12-01T20:09:33.921Z,71.13
2022-12-01T20:12:00.439Z,74.32
2022-12-01T20:14:27.037Z,74.15
2022-12-01T20:16:55.683Z,71.82
2022-12-01T20:19:22.596Z,78.80
2022-12-01T20:21:49.119Z,81.75
2022-12-01T20:24:19.852Z,77.65
2022-12-01T20:26:50.767Z,78.05
2022-12-01T20:29:23.419Z,91.30
2022-12-01T20:34:21.427Z,88.25
2022-12-01T20:36:48.531Z,86.70
2022-12-01T20:39:15.926Z,85.32
2022-12-01T20:41:43.837Z,79.82
2022-12-01T20:44:11.127Z,94.72
2022-12-01T20:46:40.900Z,83.65
2022-12-01T20:49:08.011Z,90.85
2022-12-01T20:51:35.337Z,89.07
2022-12-01T20:56:54.233Z,87.78
2022-12-01T20:59:20.743Z,90.03
2022-12-01T21:01:47.391Z,96.70
2022-12-01T21:04:13.954Z,99.10
2022-12-01T21:06:42.986Z,91.68
2022-12-01T21:09:09.544Z,87.30
2022-12-01T21:12:05.354Z,90.45
2022-12-01T21:14:41.344Z,92.50
2022-12-01T21:17:22.506Z,93.20
2022-12-01T21:20:01.411Z,83.88
2022-12-01T21:22:28.023Z,89.68
2022-12-01T21:25:03.549Z,95.20
2022-12-01T21:27:30.068Z,91.03
2022-12-01T21:29:56.871Z,82.35
2022-12-01T21:32:30.732Z,82.50
2022-12-01T21:35:05.728Z,92.18
2022-12-01T21:37:32.229Z,83.50
2022-12-01T21:39:59.523Z,83.78
2022-12-01T21:42:29.895Z,85.60
2022-12-01T21:44:56.882Z,79.32
2022-12-01T21:47:26.258Z,84.28
2022-12-01T21:49:55.619Z,86.32
2022-12-01T21:52:27.216Z,81.50
2022-12-01T21:54:54.598Z,81.00
2022-12-01T21:57:43.139Z,85.43
2022-12-01T22:00:31.599Z,95.30
2022-12-01T22:03:13.386Z,80.88
2022-12-01T22:05:56.169Z,86.95
2022-12-01T22:08:40.358Z,92.75
2022-12-01T22:11:15.858Z,98.53
2022-12-01T22:14:01.188Z,95.47
2022-12-01T22:16:37.974Z,98.03
2022-12-01T22:19:16.777Z,96.60
2022-12-01T22:22:00.324Z,92.60
2022-12-01T22:24:32.889Z,89.85
2022-12-01T22:29:39.141Z,89.43
2022-12-01T22:32:11.903Z,87.63
2022-12-01T22:34:57.591Z,86.60
2022-12-01T22:37:38.074Z,85.80
2022-12-01T22:40:38.617Z,84.15
2022-12-01T22:43:17.346Z,83.93
2022-12-01T22:45:48.113Z,76.22
2022-12-01T22:48:33.071Z,80.25
2022-12-01T22:51:14.759Z,85.55
2022-12-01T22:53:42.262Z,78.88
2022-12-01T22:56:29.389Z,77.00
2022-12-01T22:58:56.331Z,77.95
2022-12-01T23:01:33.595Z,78.53
2022-12-01T23:04:14.196Z,77.65
2022-12-01T23:07:22.896Z,79.88
2022-12-01T23:09:49.523Z,74.60
2022-12-01T23:12:23.500Z,80.10
2022-12-01T23:14:53.376Z,73.93
2022-12-01T23:17:26.748Z,78.88
2022-12-01T23:20:05.606Z,66.30
2022-12-01T23:22:32.087Z,73.60
2022-12-01T23:25:00.481Z,74.63
2022-12-01T23:27:27.011Z,80.78
2022-12-01T23:29:54.085Z,73.18
2022-12-01T23:32:20.663Z,74.50
2022-12-01T23:34:47.402Z,67.20
2022-12-01T23:37:34.223Z,69.70
2022-12-01T23:40:02.396Z,61.38
2022-12-01T23:42:28.971Z,61.10
2022-12-01T23:44:55.544Z,56.10
2022-12-01T23:47:26.607Z,63.30
2022-12-01T23:50:00.566Z,57.03
2022-12-01T23:52:36.261Z,65.03
2022-12-01T23:55:11.492Z,60.30
2022-12-01T23:57:38.111Z,65.00
